Time;durP1;ratioP1;P1;durP2;ratioP2;P2;SDS_P1;SDS_P2;PMS_P1;PMS_P2;Temp;Humidity;BMP_temperature;BMP_pressure;BME280_temperature;BME280_humidity;BME280_pressure;Samples;Min_cycle;Max_cycle;Signal;HPM_P1;HPM_P2
2020/12/08 00:03:18;;;;;;;15.63;10.50;;;;;;;-1.61;78.94;100261.37;3338596;88;31017;-68
2020/12/08 00:08:19;;;;;;;15.85;11.05;;;;;;;-1.62;79.00;100263.55;3329440;89;31036;-67
2020/12/08 00:13:20;;;;;;;8.50;7.43;;;;;;;-1.69;78.39;100266.56;3329497;88;30952;-68
2020/12/08 00:18:21;;;;;;;11.10;8.70;;;;;;;-1.66;78.41;100269.62;3329387;89;31140;-68
2020/12/08 00:23:22;;;;;;;14.47;10.30;;;;;;;-1.70;78.66;100274.40;3329818;89;30945;-72
2020/12/08 00:28:23;;;;;;;10.87;7.63;;;;;;;-1.58;78.52;100258.80;3329564;88;25873;-73
2020/12/08 00:33:24;;;;;;;14.33;9.43;;;;;;;-1.67;77.63;100266.56;3329463;89;31542;-68
2020/12/08 00:38:26;;;;;;;14.33;9.97;;;;;;;-1.71;78.05;100279.17;3329391;89;25796;-68
2020/12/08 00:43:27;;;;;;;9.43;7.73;;;;;;;-1.62;77.90;100271.39;3329408;89;31030;-67
2020/12/08 00:48:28;;;;;;;11.90;8.33;;;;;;;-1.69;77.29;100286.16;3329447;89;25868;-73
2020/12/08 00:53:31;;;;;;;11.40;8.27;;;;;;;-1.67;77.33;100292.70;3329337;88;31367;-73
2020/12/08 00:58:31;;;;;;;9.67;7.30;;;;;;;-1.67;77.66;100287.47;3329585;89;25796;-73
2020/12/08 01:03:34;;;;;;;9.93;7.22;;;;;;;-1.66;77.60;100289.23;3335188;88;25819;-74
2020/12/08 01:08:36;;;;;;;10.80;7.43;;;;;;;-1.82;77.70;100289.53;3343942;88;30978;-73
2020/12/08 01:13:36;;;;;;;10.13;7.20;;;;;;;-1.90;78.03;100290.75;3344158;88;25776;-74
2020/12/08 01:23:45;;;;;;;7.47;5.67;;;;;;;-1.72;77.66;100292.66;3831693;77;26490;-74
2020/12/08 01:28:46;;;;;;;12.50;7.73;;;;;;;-1.83;77.64;100296.92;3825005;77;34825;-73
2020/12/08 01:33:47;;;;;;;10.83;7.77;;;;;;;-1.70;77.29;100290.08;3825012;77;25700;-74
2020/12/08 01:38:48;;;;;;;10.00;7.40;;;;;;;-1.66;77.13;100291.44;3824873;77;28126;-73
2020/12/08 01:43:51;;;;;;;13.33;8.03;;;;;;;-1.80;76.59;100284.77;3824889;77;25726;-73
2020/12/08 01:48:54;;;;;;;11.13;7.37;;;;;;;-1.89;76.35;100276.83;3824681;77;35345;-74
2020/12/08 01:53:55;;;;;;;10.70;7.57;;;;;;;-1.87;75.96;100271.64;3824783;77;35299;-74
2020/12/08 01:58:56;;;;;;;11.67;7.50;;;;;;;-1.85;75.76;100283.86;3824872;77;25744;-73
2020/12/08 02:03:58;;;;;;;12.43;7.70;;;;;;;-1.90;75.69;100281.61;3824785;77;26219;-74
2020/12/08 02:08:58;;;;;;;9.55;7.80;;;;;;;-1.97;75.71;100275.88;3824771;77;25796;-74
2020/12/08 02:13:59;;;;;;;13.00;6.93;;;;;;;-1.85;75.26;100266.88;3824770;77;25714;-74
2020/12/08 02:19:00;;;;;;;9.83;6.77;;;;;;;-1.93;75.49;100275.06;3824631;77;26071;-73
2020/12/08 02:24:02;;;;;;;10.60;7.20;;;;;;;-2.06;75.66;100270.15;3820541;77;25863;-73
2020/12/08 02:29:04;;;;;;;10.67;6.93;;;;;;;-1.93;75.12;100272.01;3821254;77;25791;-73
2020/12/08 02:34:07;;;;;;;6.93;5.40;;;;;;;-1.92;75.15;100299.03;3820930;77;25741;-73
2020/12/08 02:39:08;;;;;;;9.97;7.00;;;;;;;-1.99;74.58;100288.08;3819311;77;34824;-73
2020/12/08 02:44:08;;;;;;;10.07;6.87;;;;;;;-1.98;74.92;100302.90;3819207;77;25737;-74
2020/12/08 02:49:09;;;;;;;7.10;5.13;;;;;;;-2.02;74.91;100286.73;3819172;77;25755;-71
2020/12/08 02:54:11;;;;;;;8.00;5.60;;;;;;;-2.03;75.53;100298.92;3819237;77;26456;-74
2020/12/08 02:59:11;;;;;;;7.27;6.00;;;;;;;-1.91;74.77;100292.95;3819167;77;25759;-74
2020/12/08 03:04:12;;;;;;;9.77;6.80;;;;;;;-1.88;75.12;100292.09;3819366;77;25776;-74
2020/12/08 03:09:13;;;;;;;9.63;6.73;;;;;;;-1.88;75.29;100290.34;3819472;77;25764;-74
2020/12/08 03:14:14;;;;;;;8.45;5.47;;;;;;;-1.81;74.83;100286.93;3819557;77;25825;-73
2020/12/08 03:19:15;;;;;;;8.17;5.50;;;;;;;-1.87;74.72;100292.11;3821667;77;25868;-73
2020/12/08 03:24:16;;;;;;;7.83;5.80;;;;;;;-1.93;74.92;100285.08;3819602;77;33056;-74
2020/12/08 03:29:17;;;;;;;8.00;5.60;;;;;;;-1.85;74.36;100267.28;3819200;77;26291;-74
2020/12/08 03:34:18;;;;;;;11.77;6.37;;;;;;;-1.86;74.84;100287.73;3819492;77;32460;-74
2020/12/08 03:39:19;;;;;;;7.50;5.37;;;;;;;-1.83;75.11;100282.11;3819146;77;25791;-73
2020/12/08 03:44:20;;;;;;;6.57;5.57;;;;;;;-1.74;74.62;100284.36;3819055;77;25740;-74
2020/12/08 03:49:25;;;;;;;9.20;6.00;;;;;;;-1.86;74.78;100270.75;3819111;77;25743;-73
2020/12/08 03:54:25;;;;;;;9.80;5.23;;;;;;;-1.79;75.07;100286.52;3818821;77;26242;-74
2020/12/08 03:59:26;;;;;;;8.57;5.23;;;;;;;-1.78;74.58;100262.14;3819036;77;26266;-74
2020/12/08 04:04:27;;;;;;;6.60;4.97;;;;;;;-1.84;74.66;100268.63;3819355;77;25733;-75
2020/12/08 04:09:27;;;;;;;8.05;5.65;;;;;;;-1.84;74.88;100282.11;3819243;77;25790;-74
2020/12/08 04:14:28;;;;;;;7.37;5.80;;;;;;;-1.81;75.11;100286.93;3819064;77;25779;-73
2020/12/08 04:19:29;;;;;;;6.20;5.13;;;;;;;-1.73;75.36;100289.62;3819005;77;25676;-73
2020/12/08 04:24:30;;;;;;;6.37;4.40;;;;;;;-1.80;74.43;100279.98;3818533;76;25767;-74
2020/12/08 04:29:31;;;;;;;8.00;5.07;;;;;;;-1.82;74.37;100289.09;3807976;77;25785;-72
2020/12/08 04:34:33;;;;;;;6.13;5.10;;;;;;;-1.80;74.31;100283.45;3817606;77;25760;-74
2020/12/08 04:39:35;;;;;;;6.57;5.40;;;;;;;-1.83;74.30;100287.34;3730594;77;48642;-73
2020/12/08 04:44:37;;;;;;;8.07;5.77;;;;;;;-1.82;74.38;100283.86;3582091;82;26229;-74
2020/12/08 04:49:38;;;;;;;10.43;3.83;;;;;;;-1.67;74.23;100284.86;3582064;82;26196;-74
2020/12/08 04:54:42;;;;;;;5.93;4.17;;;;;;;-1.82;73.86;100275.16;3563794;82;25786;-75
2020/12/08 04:59:43;;;;;;;4.87;3.90;;;;;;;-1.84;73.88;100293.86;3581926;82;33035;-74
2020/12/08 05:04:49;;;;;;;5.97;4.50;;;;;;;-1.76;73.86;100287.84;3581718;82;26221;-73
2020/12/08 05:09:50;;;;;;;5.00;3.57;;;;;;;-1.78;73.87;100273.91;3592969;81;32588;-74
2020/12/08 05:14:52;;;;;;;6.77;5.00;;;;;;;-1.80;74.15;100282.16;3553538;82;25784;-74
2020/12/08 05:20:10;;;;;;;5.60;3.90;;;;;;;-1.78;74.50;100280.44;3577794;81;26133;-75
2020/12/08 05:25:13;;;;;;;6.70;5.20;;;;;;;-1.77;74.28;100278.69;3556923;82;32903;-74
2020/12/08 05:30:14;;;;;;;5.80;3.87;;;;;;;-1.80;74.25;100289.13;3538048;83;32525;-75
2020/12/08 05:35:24;;;;;;;6.63;5.00;;;;;;;-1.74;73.75;100290.90;3537986;83;25795;-75
2020/12/08 05:40:26;;;;;;;5.93;4.67;;;;;;;-1.78;74.62;100293.50;3537649;81;32530;-75
2020/12/08 05:45:27;;;;;;;7.70;4.80;;;;;;;-1.76;74.17;100298.29;3537595;83;32518;-76
2020/12/08 05:50:28;;;;;;;5.93;4.07;;;;;;;-1.82;74.80;100286.48;3534464;83;25724;-75
2020/12/08 05:55:31;;;;;;;6.42;5.12;;;;;;;-1.70;74.31;100286.16;3535126;83;25756;-69
2020/12/08 06:00:34;;;;;;;6.70;5.23;;;;;;;-1.81;74.48;100285.63;3534998;82;33032;-73
2020/12/08 06:05:35;;;;;;;6.27;4.87;;;;;;;-1.81;74.64;100302.61;3536759;83;32720;-76
2020/12/08 06:10:45;;;;;;;4.50;3.93;;;;;;;-1.74;74.47;100300.94;3536735;83;25820;-75
2020/12/08 06:15:46;;;;;;;8.03;5.43;;;;;;;-1.83;74.68;100323.92;3537176;83;26229;-76
2020/12/08 06:20:47;;;;;;;6.30;4.93;;;;;;;-1.70;74.67;100322.75;3536168;83;25795;-75
2020/12/08 06:26:00;;;;;;;5.80;4.23;;;;;;;-1.76;74.30;100317.89;3555272;83;26336;-76
2020/12/08 06:31:08;;;;;;;8.53;5.43;;;;;;;-1.83;74.41;100313.47;3555254;83;25857;-75
2020/12/08 06:36:09;;;;;;;7.07;4.70;;;;;;;-1.79;74.26;100324.41;3555186;83;32448;-75
2020/12/08 06:41:10;;;;;;;5.73;4.37;;;;;;;-1.80;74.23;100321.35;3555201;82;25665;-75
2020/12/08 06:46:11;;;;;;;7.47;5.17;;;;;;;-1.66;74.08;100329.75;3555283;83;26051;-68
2020/12/08 06:51:16;;;;;;;5.10;4.33;;;;;;;-1.63;74.37;100331.09;3555098;83;25796;-75
2020/12/08 06:56:31;;;;;;;4.77;3.97;;;;;;;-1.70;74.89;100324.92;3555181;82;32505;-76
2020/12/08 07:01:32;;;;;;;10.13;4.70;;;;;;;-1.77;75.25;100318.78;3554866;82;33084;-75
2020/12/08 07:06:36;;;;;;;6.20;4.60;;;;;;;-1.79;75.23;100328.75;3555210;82;25742;-76
2020/12/08 07:11:37;;;;;;;6.90;5.07;;;;;;;-1.77;74.96;100335.77;3555151;82;25829;-77
2020/12/08 07:16:41;;;;;;;5.63;3.70;;;;;;;-1.70;74.58;100333.20;3555167;82;25765;-76
2020/12/08 07:21:42;;;;;;;7.20;4.77;;;;;;;-1.65;73.95;100307.98;3558758;83;32604;-75
2020/12/08 07:26:43;;;;;;;7.87;4.70;;;;;;;-1.62;74.21;100334.12;3575035;83;25804;-76
2020/12/08 07:31:47;;;;;;;6.97;4.00;;;;;;;-1.67;74.22;100358.95;3575178;81;25735;-76
2020/12/08 07:36:48;;;;;;;7.73;5.60;;;;;;;-1.72;74.09;100347.55;3574921;83;32951;-76
2020/12/08 07:41:49;;;;;;;7.07;4.97;;;;;;;-1.68;73.84;100371.97;3574920;82;25790;-76
2020/12/08 07:46:52;;;;;;;7.07;5.50;;;;;;;-1.68;73.87;100365.44;3575158;83;25697;-77
2020/12/08 07:51:53;;;;;;;5.30;4.80;;;;;;;-1.65;74.07;100355.03;3577188;83;32882;-75
2020/12/08 07:56:53;;;;;;;7.13;4.97;;;;;;;-1.65;73.89;100374.63;3575387;81;25821;-75
2020/12/08 08:01:55;;;;;;;6.27;5.27;;;;;;;-1.66;73.71;100370.27;3574991;81;25769;-76
2020/12/08 08:06:57;;;;;;;6.37;5.00;;;;;;;-1.63;73.50;100371.61;3575084;83;25982;-75
2020/12/08 08:12:00;;;;;;;6.07;3.70;;;;;;;-1.67;73.31;100379.86;3575021;83;25781;-76
2020/12/08 08:17:02;;;;;;;6.63;5.47;;;;;;;-1.68;73.31;100383.73;3574934;83;32531;-76
2020/12/08 08:22:03;;;;;;;8.00;5.63;;;;;;;-1.62;73.18;100380.77;3574889;82;32593;-76
2020/12/08 08:27:05;;;;;;;6.07;5.43;;;;;;;-1.47;72.76;100372.17;3574950;83;25844;-77
2020/12/08 08:32:06;;;;;;;5.03;3.87;;;;;;;-1.49;72.81;100360.85;3574970;83;25911;-76
2020/12/08 08:37:07;;;;;;;5.30;4.53;;;;;;;-1.64;72.89;100371.16;3575057;83;25810;-75
2020/12/08 08:42:09;;;;;;;8.70;5.50;;;;;;;-1.54;72.88;100380.83;3574870;83;25760;-75
2020/12/08 08:47:10;;;;;;;8.00;5.10;;;;;;;-1.51;73.22;100376.95;3574889;83;25708;-76
2020/12/08 08:52:11;;;;;;;5.50;4.33;;;;;;;-1.34;72.53;100365.77;3575063;81;25777;-76
2020/12/08 08:57:12;;;;;;;6.20;5.03;;;;;;;-1.30;72.65;100363.16;3574899;82;25757;-69
2020/12/08 09:02:13;;;;;;;5.87;4.90;;;;;;;-1.45;72.58;100352.16;3574835;81;25785;-77
2020/12/08 09:07:15;;;;;;;7.13;5.30;;;;;;;-1.37;72.33;100373.58;3574806;83;26317;-75
2020/12/08 09:12:16;;;;;;;8.90;5.87;;;;;;;-1.31;72.82;100382.77;3574794;83;26234;-76
2020/12/08 09:17:17;;;;;;;7.87;5.50;;;;;;;-1.32;72.21;100383.63;3574769;83;25740;-76
2020/12/08 09:22:19;;;;;;;7.30;5.90;;;;;;;-1.29;72.09;100379.75;3574836;83;25981;-76
2020/12/08 09:27:20;;;;;;;9.80;5.40;;;;;;;-1.31;72.72;100393.23;3574744;82;25812;-76
2020/12/08 09:32:21;;;;;;;7.83;5.87;;;;;;;-1.21;72.28;100396.39;3574757;83;25721;-77
2020/12/08 09:37:24;;;;;;;10.67;5.80;;;;;;;-1.17;72.54;100409.06;3576018;83;25732;-76
2020/12/08 09:42:25;;;;;;;10.53;6.73;;;;;;;-1.20;72.68;100409.88;3576288;83;25811;-76
2020/12/08 09:47:26;;;;;;;10.83;5.67;;;;;;;-1.12;72.68;100401.67;3575132;83;25745;-76
2020/12/08 09:52:30;;;;;;;8.47;7.03;;;;;;;-1.19;72.52;100414.26;3575188;83;25861;-76
2020/12/08 09:57:31;;;;;;;12.63;9.20;;;;;;;-1.08;72.67;100410.42;3575128;83;32594;-76
2020/12/08 10:02:33;;;;;;;10.17;7.60;;;;;;;-1.13;72.34;100407.77;3574964;81;25812;-76
2020/12/08 10:07:35;;;;;;;8.50;6.50;;;;;;;-1.06;72.48;100399.99;3575218;83;32608;-70
2020/12/08 10:12:36;;;;;;;9.57;5.90;;;;;;;-1.12;72.75;100399.06;3575065;83;25793;-75
2020/12/08 10:17:37;;;;;;;9.20;6.00;;;;;;;-1.14;72.97;100394.68;3576893;83;25725;-75
2020/12/08 10:22:39;;;;;;;7.53;4.87;;;;;;;-1.10;73.13;100400.81;3575904;83;26508;-76
2020/12/08 10:27:42;;;;;;;8.80;6.07;;;;;;;-1.15;73.43;100392.52;3574944;83;33001;-78
2020/12/08 10:32:43;;;;;;;9.53;7.07;;;;;;;-1.05;73.59;100376.86;3575232;83;32957;-76
2020/12/08 10:37:45;;;;;;;12.07;6.37;;;;;;;-1.04;74.02;100382.54;3575040;82;32514;-76
2020/12/08 10:42:46;;;;;;;10.47;8.53;;;;;;;-1.07;74.14;100378.61;3575094;82;25786;-74
2020/12/08 10:47:47;;;;;;;11.73;6.60;;;;;;;-1.04;74.44;100366.42;3575076;83;25858;-76
2020/12/08 10:52:48;;;;;;;13.00;8.57;;;;;;;-1.02;74.53;100355.96;3575175;83;25789;-76
2020/12/08 10:57:51;;;;;;;12.97;8.87;;;;;;;-1.00;74.61;100373.42;3574928;83;25764;-77
2020/12/08 11:02:52;;;;;;;10.40;7.70;;;;;;;-0.90;74.67;100359.96;3574918;81;32951;-77
2020/12/08 11:07:53;;;;;;;14.60;8.90;;;;;;;-0.97;74.69;100353.83;3574973;83;26061;-68
2020/12/08 11:12:55;;;;;;;11.60;7.93;;;;;;;-0.90;74.87;100345.56;3574902;83;25879;-79
2020/12/08 11:17:56;;;;;;;9.90;6.20;;;;;;;-0.98;74.75;100365.57;3574966;81;32526;-79
2020/12/08 11:22:58;;;;;;;12.50;8.53;;;;;;;-0.94;74.83;100373.02;3568099;83;25767;-67
2020/12/08 11:28:02;;;;;;;14.07;9.07;;;;;;;-0.94;75.34;100373.91;3538244;83;25796;-75
2020/12/08 11:33:02;;;;;;;12.63;7.50;;;;;;;-0.86;74.89;100368.30;3537663;83;32619;-77
2020/12/08 11:38:03;;;;;;;10.83;8.40;;;;;;;-0.94;75.09;100339.88;3537664;83;25743;-77
2020/12/08 11:43:04;;;;;;;10.67;7.47;;;;;;;-0.95;75.83;100364.30;3537617;83;25822;-78
2020/12/08 11:48:05;;;;;;;10.27;8.23;;;;;;;-0.95;76.39;100360.82;3537691;83;25841;-78
2020/12/08 11:53:07;;;;;;;14.50;8.93;;;;;;;-0.93;77.26;100370.84;3537779;82;25898;-76
2020/12/08 11:58:08;;;;;;;15.53;9.40;;;;;;;-1.06;78.33;100369.45;3537572;83;25766;-71
2020/12/08 12:03:09;;;;;;;16.37;10.73;;;;;;;-1.06;78.64;100360.75;3537623;82;25782;-77
2020/12/08 12:08:10;;;;;;;13.93;10.47;;;;;;;-0.96;78.82;100378.24;3537802;82;25752;-79
2020/12/08 12:13:12;;;;;;;15.33;11.67;;;;;;;-1.06;79.74;100386.91;3537692;83;25826;-78
2020/12/08 12:18:13;;;;;;;15.63;10.73;;;;;;;-1.14;80.35;100390.34;3537845;83;25991;-78
2020/12/08 12:23:14;;;;;;;13.97;10.93;;;;;;;-1.07;80.94;100393.00;3537772;83;25894;-79
2020/12/08 12:28:15;;;;;;;17.27;10.83;;;;;;;-1.14;81.21;100377.27;3537841;83;25804;-79
2020/12/08 12:33:16;;;;;;;15.40;10.10;;;;;;;-1.09;81.94;100387.73;3537585;83;26201;-71
2020/12/08 12:38:17;;;;;;;15.63;10.00;;;;;;;-1.05;81.94;100393.86;3537437;83;25863;-78
2020/12/08 12:43:18;;;;;;;13.80;10.50;;;;;;;-1.16;82.83;100393.37;3537638;83;25794;-76
2020/12/08 12:48:20;;;;;;;16.57;9.70;;;;;;;-1.14;83.45;100385.11;3537519;83;25992;-77
2020/12/08 12:53:21;;;;;;;13.30;8.80;;;;;;;-1.26;85.06;100380.20;3537590;83;25787;-70
2020/12/08 12:58:22;;;;;;;18.90;11.93;;;;;;;-1.20;86.48;100378.94;3537548;83;25830;-75
2020/12/08 13:03:23;;;;;;;19.87;13.37;;;;;;;-1.15;88.28;100377.23;3537537;82;25737;-75
2020/12/08 13:08:24;;;;;;;19.62;13.68;;;;;;;-1.15;89.77;100366.35;3537871;83;25852;-77
2020/12/08 13:13:25;;;;;;;17.90;12.60;;;;;;;-1.09;90.91;100360.27;3537657;83;27678;-76
2020/12/08 13:18:27;;;;;;;21.43;13.63;;;;;;;-1.18;91.76;100370.23;3537822;83;25739;-75
2020/12/08 13:23:30;;;;;;;18.43;11.23;;;;;;;-1.32;93.84;100386.25;3537512;83;25972;-77
2020/12/08 13:28:32;;;;;;;22.40;13.60;;;;;;;-1.34;94.00;100378.84;3537599;83;28703;-75
2020/12/08 13:33:34;;;;;;;20.43;14.13;;;;;;;-1.31;94.32;100384.08;3537552;83;27845;-75
2020/12/08 13:38:35;;;;;;;20.80;13.03;;;;;;;-1.24;94.43;100402.02;3537422;83;28582;-69
2020/12/08 13:43:36;;;;;;;20.63;13.30;;;;;;;-1.40;93.34;100408.84;3537317;83;26056;-68
2020/12/08 13:48:37;;;;;;;15.77;11.07;;;;;;;-1.40;93.95;100402.30;3537430;83;25757;-69
2020/12/08 13:53:38;;;;;;;20.57;13.70;;;;;;;-1.39;93.96;100400.13;3537808;83;25817;-76
2020/12/08 13:58:40;;;;;;;21.53;14.77;;;;;;;-1.43;94.06;100408.38;3537559;83;26246;-76
2020/12/08 14:03:41;;;;;;;25.27;15.50;;;;;;;-1.41;93.99;100418.88;3537447;82;25750;-68
2020/12/08 14:08:42;;;;;;;21.13;13.47;;;;;;;-1.28;93.37;100391.97;3537602;83;25870;-76
2020/12/08 14:13:43;;;;;;;24.53;15.70;;;;;;;-1.24;92.35;100403.34;3538076;83;25985;-77
2020/12/08 14:18:44;;;;;;;26.30;17.27;;;;;;;-1.28;91.39;100414.20;3538285;83;25851;-76
2020/12/08 14:23:45;;;;;;;26.13;17.40;;;;;;;-1.16;90.29;100421.25;3537890;83;25863;-76
2020/12/08 14:28:47;;;;;;;24.87;16.67;;;;;;;-1.13;88.88;100430.45;3537740;83;25849;-79
2020/12/08 14:33:48;;;;;;;26.67;20.00;;;;;;;-1.15;88.25;100418.67;3537789;83;31552;-77
2020/12/08 14:38:49;;;;;;;28.00;18.33;;;;;;;-1.01;87.57;100429.67;3537709;83;25776;-77
2020/12/08 14:43:50;;;;;;;28.17;17.73;;;;;;;-1.10;86.52;100432.21;3537506;83;25866;-75
2020/12/08 14:48:51;;;;;;;28.07;19.60;;;;;;;-1.12;86.56;100419.98;3537749;83;26111;-76
2020/12/08 14:53:54;;;;;;;27.83;17.53;;;;;;;-0.99;86.18;100421.42;3537768;82;32985;-76
2020/12/08 14:58:56;;;;;;;27.93;18.63;;;;;;;-1.02;85.45;100425.30;3537597;82;26259;-79
2020/12/08 15:03:57;;;;;;;28.13;18.87;;;;;;;-1.08;84.97;100425.26;3537959;83;26254;-75
2020/12/08 15:09:00;;;;;;;28.37;20.00;;;;;;;-1.14;85.03;100423.05;3537641;83;25756;-71
2020/12/08 15:14:01;;;;;;;21.97;16.23;;;;;;;-1.15;84.92;100446.14;3537592;82;27570;-78
2020/12/08 15:19:02;;;;;;;30.20;19.47;;;;;;;-1.15;84.20;100448.76;3537496;83;25782;-75
2020/12/08 15:24:08;;;;;;;30.23;20.70;;;;;;;-1.15;84.18;100461.84;3535211;83;25836;-70
2020/12/08 15:29:11;;;;;;;29.43;18.67;;;;;;;-1.13;84.30;100448.31;3512474;84;28431;-69
2020/12/08 15:34:12;;;;;;;31.57;18.23;;;;;;;-1.07;84.08;100467.57;3512453;84;27610;-77
2020/12/08 15:39:13;;;;;;;29.10;19.27;;;;;;;-1.13;83.98;100469.25;3512535;84;25740;-77
2020/12/08 15:44:14;;;;;;;23.70;14.73;;;;;;;-1.12;84.17;100469.70;3514753;84;26029;-77
2020/12/08 15:49:15;;;;;;;26.37;16.87;;;;;;;-1.22;83.50;100461.34;3514124;84;25721;-77
2020/12/08 15:54:16;;;;;;;26.23;17.50;;;;;;;-1.15;83.29;100463.56;3512604;84;26036;-76
2020/12/08 15:59:18;;;;;;;32.53;19.67;;;;;;;-1.24;83.29;100476.58;3512438;83;25792;-77
2020/12/08 16:04:19;;;;;;;24.83;16.50;;;;;;;-1.25;83.66;100493.98;3512460;84;25770;-77
2020/12/08 16:09:20;;;;;;;32.60;19.87;;;;;;;-1.24;83.50;100489.21;3512510;84;25812;-77
2020/12/08 16:14:21;;;;;;;31.48;20.12;;;;;;;-1.29;83.69;100504.85;3512508;84;25744;-76
2020/12/08 16:19:22;;;;;;;34.40;20.43;;;;;;;-1.19;83.80;100535.91;3512841;84;25991;-77
2020/12/08 16:24:24;;;;;;;31.43;19.87;;;;;;;-1.20;83.28;100535.89;3514581;82;25769;-77
2020/12/08 16:29:25;;;;;;;33.37;19.90;;;;;;;-1.19;83.33;100520.20;3537722;83;25815;-77
2020/12/08 16:34:26;;;;;;;33.70;18.93;;;;;;;-1.19;83.22;100523.27;3537698;83;26262;-78
2020/12/08 16:39:27;;;;;;;32.80;20.07;;;;;;;-1.18;83.00;100518.04;3537886;83;25989;-77
2020/12/08 16:44:29;;;;;;;31.07;18.17;;;;;;;-1.18;83.10;100521.97;3538886;82;25672;-78
2020/12/08 16:49:30;;;;;;;32.37;20.03;;;;;;;-1.23;83.19;100516.27;3538466;83;25735;-77
2020/12/08 16:54:31;;;;;;;33.53;20.57;;;;;;;-1.12;83.48;100506.77;3537850;82;26061;-76
2020/12/08 16:59:32;;;;;;;31.10;18.82;;;;;;;-1.15;82.88;100507.63;3537782;82;26153;-76
2020/12/08 17:04:33;;;;;;;32.87;20.23;;;;;;;-1.19;82.74;100510.19;3537504;83;32916;-77
2020/12/08 17:09:34;;;;;;;34.13;20.40;;;;;;;-1.18;83.34;100505.41;3537475;83;32851;-69
2020/12/08 17:14:35;;;;;;;36.23;20.43;;;;;;;-1.18;83.09;100524.58;3537436;82;33020;-75
2020/12/08 17:19:37;;;;;;;36.47;21.70;;;;;;;-1.13;82.69;100520.71;3537489;83;32855;-75
2020/12/08 17:24:38;;;;;;;32.37;20.40;;;;;;;-1.17;82.97;100525.48;3536288;83;32992;-76
2020/12/08 17:29:39;;;;;;;33.90;20.93;;;;;;;-1.18;82.71;100511.50;3516077;84;33359;-76
2020/12/08 17:34:40;;;;;;;28.83;19.57;;;;;;;-1.25;83.10;100529.30;3516101;83;25755;-78
2020/12/08 17:39:44;;;;;;;35.47;21.63;;;;;;;-1.27;83.47;100517.97;3515884;84;26285;-77
2020/12/08 17:44:45;;;;;;;35.97;20.53;;;;;;;-1.24;83.37;100545.45;3516044;83;32825;-78
2020/12/08 17:49:46;;;;;;;30.87;18.67;;;;;;;-1.22;83.18;100530.66;3516353;84;32949;-77
2020/12/08 17:54:47;;;;;;;37.47;22.90;;;;;;;-1.31;83.55;100531.86;3494760;84;25823;-77
2020/12/08 17:59:48;;;;;;;35.53;21.30;;;;;;;-1.22;83.99;100528.05;3516156;83;25835;-71
2020/12/08 18:04:50;;;;;;;27.65;18.37;;;;;;;-1.29;83.91;100536.69;3516113;83;25866;-72
2020/12/08 18:09:51;;;;;;;28.60;19.10;;;;;;;-1.24;83.39;100534.98;3516603;84;25775;-78
2020/12/08 18:14:52;;;;;;;39.77;23.23;;;;;;;-1.26;83.32;100532.78;3516776;84;25884;-72
2020/12/08 18:19:53;;;;;;;32.10;19.67;;;;;;;-1.17;83.55;100528.95;3516239;84;25812;-72
2020/12/08 18:24:54;;;;;;;32.40;22.33;;;;;;;-1.22;83.64;100526.73;3518147;82;26196;-78
2020/12/08 18:29:55;;;;;;;34.88;20.80;;;;;;;-1.20;83.54;100511.91;3538052;83;25752;-79
2020/12/08 18:34:56;;;;;;;28.30;17.77;;;;;;;-1.18;83.25;100521.97;3537843;83;28137;-79
2020/12/08 18:39:58;;;;;;;30.13;20.87;;;;;;;-1.28;83.68;100521.44;3537648;83;31004;-80
2020/12/08 18:44:59;;;;;;;33.77;20.20;;;;;;;-1.27;83.69;100534.97;3537968;83;31494;-80
2020/12/08 18:50:00;;;;;;;33.13;21.10;;;;;;;-1.26;83.64;100541.93;3537858;83;32055;-80
2020/12/08 18:55:02;;;;;;;30.55;18.77;;;;;;;-1.22;83.69;100546.36;3537902;83;31480;-81
2020/12/08 19:00:04;;;;;;;32.33;19.20;;;;;;;-1.27;83.77;100544.12;3537585;82;31526;-72
2020/12/08 19:05:05;;;;;;;32.10;18.13;;;;;;;-1.15;83.64;100546.87;3538077;82;25787;-80
2020/12/08 19:10:07;;;;;;;32.77;19.50;;;;;;;-1.20;83.29;100552.45;3537910;83;25835;-81
2020/12/08 19:15:08;;;;;;;35.23;20.43;;;;;;;-1.20;83.13;100549.84;3538111;83;25832;-78
2020/12/08 19:20:12;;;;;;;37.63;23.18;;;;;;;-1.16;83.20;100559.50;3538028;83;26221;-73
2020/12/08 19:25:14;;;;;;;28.97;20.57;;;;;;;-1.13;83.14;100566.50;3537817;83;31589;-79
2020/12/08 19:30:15;;;;;;;33.73;21.33;;;;;;;-1.09;82.87;100572.64;3538124;83;33296;-71
2020/12/08 19:35:16;;;;;;;30.53;20.57;;;;;;;-1.03;83.21;100577.52;3537598;83;25796;-79
2020/12/08 19:40:18;;;;;;;32.87;22.10;;;;;;;-0.98;82.59;100572.30;3537565;83;25854;-72
2020/12/08 19:45:21;;;;;;;28.90;19.30;;;;;;;-1.04;82.55;100578.38;3537573;83;25986;-79
2020/12/08 19:50:23;;;;;;;30.33;17.83;;;;;;;-1.08;82.44;100582.25;3537475;83;32082;-79
2020/12/08 19:55:24;;;;;;;33.73;20.60;;;;;;;-1.08;82.38;100586.17;3537521;83;25711;-79
2020/12/08 20:00:25;;;;;;;36.70;21.30;;;;;;;-1.09;82.75;100596.19;3537491;82;25811;-80
2020/12/08 20:05:26;;;;;;;33.73;22.17;;;;;;;-1.07;82.56;100580.08;3537527;83;25840;-80
2020/12/08 20:10:27;;;;;;;29.73;17.23;;;;;;;-1.06;82.39;100580.53;3537582;82;25910;-80
2020/12/08 20:15:28;;;;;;;32.38;19.45;;;;;;;-1.12;82.25;100586.13;3537807;83;25726;-79
2020/12/08 20:20:29;;;;;;;31.50;21.17;;;;;;;-1.07;82.01;100581.39;3537559;83;25784;-80
2020/12/08 20:25:31;;;;;;;29.77;19.47;;;;;;;-1.04;82.05;100580.09;3536807;83;25767;-72
2020/12/08 20:30:32;;;;;;;62.30;33.97;;;;;;;-1.02;81.98;100586.23;3512449;84;25827;-80
2020/12/08 20:35:34;;;;;;;31.73;19.60;;;;;;;-1.06;82.03;100580.53;3512538;84;25716;-73
2020/12/08 20:40:35;;;;;;;29.27;18.20;;;;;;;-1.05;81.98;100587.50;3512381;84;25963;-80
2020/12/08 20:45:36;;;;;;;29.37;18.67;;;;;;;-1.02;81.68;100583.62;3512450;84;25748;-80
2020/12/08 20:50:38;;;;;;;28.17;17.27;;;;;;;-1.10;81.78;100583.96;3512350;84;27173;-73
2020/12/08 20:55:39;;;;;;;29.43;17.90;;;;;;;-1.04;81.41;100593.18;3512402;84;25815;-73
2020/12/08 21:00:40;;;;;;;29.10;17.40;;;;;;;-1.07;81.72;100593.16;3512658;83;25820;-80
2020/12/08 21:05:41;;;;;;;31.10;19.27;;;;;;;-1.04;81.41;100593.18;3512360;84;25752;-71
2020/12/08 21:10:42;;;;;;;25.83;17.53;;;;;;;-0.95;81.64;100590.67;3512603;84;25793;-73
2020/12/08 21:15:43;;;;;;;29.00;19.13;;;;;;;-1.02;81.36;100597.56;3512522;84;30907;-80
2020/12/08 21:20:44;;;;;;;24.83;17.43;;;;;;;-1.03;81.29;100603.69;3512714;84;30983;-79
2020/12/08 21:25:46;;;;;;;29.37;18.33;;;;;;;-1.00;81.45;100610.69;3512635;83;26238;-79
2020/12/08 21:30:47;;;;;;;30.20;18.47;;;;;;;-1.02;81.24;100614.58;3512603;84;30977;-80
2020/12/08 21:35:48;;;;;;;27.33;18.37;;;;;;;-1.06;81.62;100598.85;3512678;84;31026;-80
2020/12/08 21:40:49;;;;;;;25.13;16.63;;;;;;;-0.99;81.25;100596.30;3512820;84;30921;-80
2020/12/08 21:45:50;;;;;;;30.87;19.27;;;;;;;-0.98;81.64;100599.78;3512720;84;30942;-80
2020/12/08 21:50:51;;;;;;;28.60;18.53;;;;;;;-1.02;81.71;100604.55;3513374;84;31059;-79
2020/12/08 21:55:52;;;;;;;27.90;18.93;;;;;;;-0.95;81.15;100590.67;3513728;84;30938;-79
2020/12/08 22:00:53;;;;;;;26.57;18.33;;;;;;;-0.99;81.65;100592.38;3513544;83;25854;-80
2020/12/08 22:05:54;;;;;;;28.63;18.93;;;;;;;-0.98;81.58;100591.93;3512809;84;26244;-80
2020/12/08 22:10:55;;;;;;;27.07;17.17;;;;;;;-1.00;81.37;100598.91;3512680;84;25761;-79
2020/12/08 22:15:55;;;;;;;25.97;17.93;;;;;;;-1.04;81.56;100597.11;3512690;84;34856;-79
2020/12/08 22:20:56;;;;;;;31.00;19.23;;;;;;;-1.05;81.80;100584.88;3512600;84;34837;-71
2020/12/08 22:25:57;;;;;;;28.50;17.83;;;;;;;-0.98;81.74;100591.93;3512676;84;34846;-80
2020/12/08 22:30:59;;;;;;;26.93;18.00;;;;;;;-1.00;81.86;100588.45;3537248;83;34823;-79
2020/12/08 22:35:59;;;;;;;29.13;17.50;;;;;;;-1.09;81.40;100592.27;3537750;83;34833;-80
2020/12/08 22:41:00;;;;;;;27.33;17.70;;;;;;;-1.14;81.86;100585.25;3537864;83;34994;-80
2020/12/08 22:46:01;;;;;;;26.83;17.17;;;;;;;-1.16;82.04;100573.89;3537509;83;25730;-80
2020/12/08 22:51:03;;;;;;;27.50;16.47;;;;;;;-1.27;82.43;100589.91;3537585;83;26696;-79
2020/12/08 22:56:04;;;;;;;26.47;17.50;;;;;;;-1.25;82.29;100600.38;3537746;83;26314;-79
2020/12/08 23:01:04;;;;;;;27.87;18.57;;;;;;;-1.30;81.94;100601.62;3537603;82;28150;-79
2020/12/08 23:06:06;;;;;;;29.37;18.67;;;;;;;-1.34;82.37;100599.84;3537612;83;25823;-80
2020/12/08 23:11:06;;;;;;;28.97;17.87;;;;;;;-1.34;82.05;100609.00;3537629;83;25854;-79